Time;durP1;ratioP1;P1;durP2;ratioP2;P2;SDS_P1;SDS_P2;PMS_P1;PMS_P2;Temp;Humidity;BMP_temperature;BMP_pressure;BME280_temperature;BME280_humidity;BME280_pressure;Samples;Min_cycle;Max_cycle;Signal;HPM_P1;HPM_P2
2022/02/18 00:00:49;;;;;;;;;;;;;;;;;;5092348;28;20329;-52
2022/02/18 00:03:16;;;;;;;;;;;;;;;;;;5092763;28;19987;-55
2022/02/18 00:05:42;;;;;;;;;;;;;;;;;;5092858;28;19908;-58
2022/02/18 00:08:09;;;;;;;;;;;;;;;;;;5092846;28;19948;-56
2022/02/18 00:10:35;;;;;;;;;;;;;;;;;;5092724;28;19908;-57
2022/02/18 00:13:02;;;;;;;;;;;;;;;;;;5092549;28;19927;-48
2022/02/18 00:15:28;;;;;;;;;;;;;;;;;;5092412;28;19916;-59
2022/02/18 00:17:54;;;;;;;;;;;;;;;;;;5092665;28;19994;-59
2022/02/18 00:20:21;;;;;;;;;;;;;;;;;;5074655;28;20206;-59
2022/02/18 00:22:47;;;;;;;;;;;;;;;;;;5092545;28;20278;-59
2022/02/18 00:25:14;;;;;;;;;;;;;;;;;;5092696;28;19991;-58
2022/02/18 00:27:40;;;;;;;;;;;;;;;;;;5093208;28;19961;-56
2022/02/18 00:30:07;;;;;;;;;;;;;;;;;;5092627;28;19904;-54
2022/02/18 00:32:33;;;;;;;;;;;;;;;;;;5092303;28;19909;-55
2022/02/18 00:35:00;;;;;;;;;;;;;;;;;;5092317;28;19960;-60
2022/02/18 00:37:27;;;;;;;;;;;;;;;;;;5092006;28;19926;-58
2022/02/18 00:39:55;;;;;;;;;;;;;;;;;;5093107;28;19908;-56
2022/02/18 00:42:21;;;;;;;;;;;;;;;;;;5095607;28;19983;-59
2022/02/18 00:44:48;;;;;;;;;;;;;;;;;;5095690;28;19995;-55
2022/02/18 00:47:14;;;;;;;;;;;;;;;;;;5096000;28;19961;-47
2022/02/18 00:49:41;;;;;;;;;;;;;;;;;;5095969;28;20337;-52
2022/02/18 00:52:07;;;;;;;;;;;;;;;;;;5096119;28;19907;-54
2022/02/18 00:54:34;;;;;;;;;;;;;;;;;;5095563;28;19915;-50
2022/02/18 00:57:00;;;;;;;;;;;;;;;;;;5095566;28;20339;-60
2022/02/18 00:59:27;;;;;;;;;;;;;;;;;;5095975;28;19915;-63
2022/02/18 01:01:53;;;;;;;;;;;;;;;;;;5095980;28;20385;-57
2022/02/18 01:04:20;;;;;;;;;;;;;;;;;;5095626;28;20272;-58
2022/02/18 01:06:46;;;;;;;;;;;;;;;;;;5095286;28;19908;-56
2022/02/18 01:09:13;;;;;;;;;;;;;;;;;;5095469;28;19938;-57
2022/02/18 01:11:39;;;;;;;;;;;;;;;;;;5095721;28;19908;-53
2022/02/18 01:14:05;;;;;;;;;;;;;;;;;;5095579;28;20379;-56
2022/02/18 01:16:32;;;;;;;;;;;;;;;;;;5094941;28;19919;-58
2022/02/18 01:18:59;;;;;;;;;;;;;;;;;;5095349;28;19904;-57
2022/02/18 01:21:25;;;;;;;;;;;;;;;;;;5095166;28;20212;-57
2022/02/18 01:23:51;;;;;;;;;;;;;;;;;;5095531;28;19905;-56
2022/02/18 01:26:18;;;;;;;;;;;;;;;;;;5091239;28;20003;-62
2022/02/18 01:28:44;;;;;;;;;;;;;;;;;;5094942;28;19908;-59
2022/02/18 01:31:11;;;;;;;;;;;;;;;;;;5095152;28;19978;-55
2022/02/18 01:33:37;;;;;;;;;;;;;;;;;;5094603;28;20358;-52
2022/02/18 01:36:04;;;;;;;;;;;;;;;;;;5095107;28;20012;-48
2022/02/18 01:38:30;;;;;;;;;;;;;;;;;;5094943;28;19919;-57
2022/02/18 01:40:57;;;;;;;;;;;;;;;;;;5094606;28;19951;-55
2022/02/18 01:43:23;;;;;;;;;;;;;;;;;;5094485;28;19908;-55
2022/02/18 01:45:50;;;;;;;;;;;;;;;;;;5094787;28;19999;-61
2022/02/18 01:48:16;;;;;;;;;;;;;;;;;;5094818;28;19970;-61
2022/02/18 01:50:43;;;;;;;;;;;;;;;;;;5094471;28;19915;-50
2022/02/18 01:53:12;;;;;;;;;;;;;;;;;;5094138;28;20005;-55
2022/02/18 01:55:38;;;;;;;;;;;;;;;;;;5094609;28;19924;-57
2022/02/18 01:58:04;;;;;;;;;;;;;;;;;;5094277;28;20029;-58
2022/02/18 02:00:31;;;;;;;;;;;;;;;;;;5094502;28;20278;-52
2022/02/18 02:02:57;;;;;;;;;;;;;;;;;;5094840;28;19954;-56
2022/02/18 02:05:24;;;;;;;;;;;;;;;;;;5094556;28;19966;-59
2022/02/18 02:07:50;;;;;;;;;;;;;;;;;;5094608;28;19914;-59
2022/02/18 02:10:17;;;;;;;;;;;;;;;;;;5094572;28;20342;-58
2022/02/18 02:12:47;;;;;;;;;;;;;;;;;;5094375;28;19936;-61
2022/02/18 02:15:14;;;;;;;;;;;;;;;;;;5094256;28;19904;-58
2022/02/18 02:17:40;;;;;;;;;;;;;;;;;;5100268;28;20019;-62
2022/02/18 02:20:07;;;;;;;;;;;;;;;;;;5115076;28;19908;-54
2022/02/18 02:22:33;;;;;;;;;;;;;;;;;;5114802;28;19916;-59
2022/02/18 02:25:00;;;;;;;;;;;;;;;;;;5114768;28;19915;-59
2022/02/18 02:27:26;;;;;;;;;;;;;;;;;;5113432;28;20022;-61
2022/02/18 02:29:53;;;;;;;;;;;;;;;;;;5115304;28;19961;-59
2022/02/18 02:32:20;;;;;;;;;;;;;;;;;;5115023;28;20371;-58
2022/02/18 02:34:46;;;;;;;;;;;;;;;;;;5114231;28;19908;-56
2022/02/18 02:37:13;;;;;;;;;;;;;;;;;;5114166;28;19916;-58
2022/02/18 02:39:39;;;;;;;;;;;;;;;;;;5115015;27;19915;-58
2022/02/18 02:42:06;;;;;;;;;;;;;;;;;;5114783;28;19904;-52
2022/02/18 02:44:32;;;;;;;;;;;;;;;;;;5114080;28;19915;-56
2022/02/18 02:46:59;;;;;;;;;;;;;;;;;;5114204;28;19910;-55
2022/02/18 02:49:25;;;;;;;;;;;;;;;;;;5114259;28;19908;-57
2022/02/18 02:51:52;;;;;;;;;;;;;;;;;;5114378;28;19971;-57
2022/02/18 02:54:19;;;;;;;;;;;;;;;;;;5114197;28;19936;-59
2022/02/18 02:56:45;;;;;;;;;;;;;;;;;;5114130;28;19916;-60
2022/02/18 02:59:12;;;;;;;;;;;;;;;;;;5114148;28;19912;-58
2022/02/18 03:01:39;;;;;;;;;;;;;;;;;;5113890;28;19910;-53
2022/02/18 03:04:05;;;;;;;;;;;;;;;;;;5113070;28;19930;-57
2022/02/18 03:06:32;;;;;;;;;;;;;;;;;;5113467;28;20379;-58
2022/02/18 03:08:58;;;;;;;;;;;;;;;;;;5113712;28;19908;-58
2022/02/18 03:11:25;;;;;;;;;;;;;;;;;;5113781;28;19950;-57
2022/02/18 03:13:51;;;;;;;;;;;;;;;;;;5114050;28;19908;-57
2022/02/18 03:16:18;;;;;;;;;;;;;;;;;;5113682;28;19974;-57
2022/02/18 03:18:44;;;;;;;;;;;;;;;;;;5112969;28;20307;-55
2022/02/18 03:21:10;;;;;;;;;;;;;;;;;;5113246;28;20030;-55
2022/02/18 03:23:37;;;;;;;;;;;;;;;;;;5113596;28;19962;-50
2022/02/18 03:26:04;;;;;;;;;;;;;;;;;;5113445;28;19908;-59
2022/02/18 03:28:30;;;;;;;;;;;;;;;;;;5113642;28;20015;-54
2022/02/18 03:30:58;;;;;;;;;;;;;;;;;;5114078;28;19915;-56
2022/02/18 03:33:25;;;;;;;;;;;;;;;;;;5113827;28;20354;-51
2022/02/18 03:35:52;;;;;;;;;;;;;;;;;;5113966;28;19976;-55
2022/02/18 03:38:18;;;;;;;;;;;;;;;;;;5113013;28;20390;-57
2022/02/18 03:40:46;;;;;;;;;;;;;;;;;;5113091;28;19968;-57
2022/02/18 03:43:12;;;;;;;;;;;;;;;;;;5113128;28;19937;-62
2022/02/18 03:45:39;;;;;;;;;;;;;;;;;;5112976;28;19960;-52
2022/02/18 03:48:05;;;;;;;;;;;;;;;;;;5113480;28;19908;-55
2022/02/18 03:50:32;;;;;;;;;;;;;;;;;;5113354;28;19952;-55
2022/02/18 03:52:59;;;;;;;;;;;;;;;;;;5113544;28;19930;-53
2022/02/18 03:55:25;;;;;;;;;;;;;;;;;;5113261;28;19990;-53
2022/02/18 03:57:52;;;;;;;;;;;;;;;;;;5113489;28;19908;-52
2022/02/18 04:00:18;;;;;;;;;;;;;;;;;;5113587;28;20361;-56
2022/02/18 04:02:45;;;;;;;;;;;;;;;;;;5112964;28;20281;-57
2022/02/18 04:05:11;;;;;;;;;;;;;;;;;;5113859;28;19974;-58
2022/02/18 04:07:38;;;;;;;;;;;;;;;;;;5113689;28;19915;-61
2022/02/18 04:10:04;;;;;;;;;;;;;;;;;;5113949;28;20013;-56
2022/02/18 04:12:31;;;;;;;;;;;;;;;;;;5113581;28;19908;-57
2022/02/18 04:14:57;;;;;;;;;;;;;;;;;;5114836;28;20274;-52
2022/02/18 04:17:25;;;;;;;;;;;;;;;;;;5117574;28;19920;-56
2022/02/18 04:19:52;;;;;;;;;;;;;;;;;;5117437;28;19914;-61
2022/02/18 04:22:19;;;;;;;;;;;;;;;;;;5117617;28;19915;-57
2022/02/18 04:24:45;;;;;;;;;;;;;;;;;;5117194;28;19946;-51
2022/02/18 04:27:12;;;;;;;;;;;;;;;;;;5093812;28;19921;-51
2022/02/18 04:29:38;;;;;;;;;;;;;;;;;;5097229;28;19912;-59
2022/02/18 04:32:05;;;;;;;;;;;;;;;;;;5093270;28;19908;-58
2022/02/18 04:34:31;;;;;;;;;;;;;;;;;;5095658;28;19908;-60
2022/02/18 04:36:58;;;;;;;;;;;;;;;;;;5096338;28;20001;-54
2022/02/18 04:39:24;;;;;;;;;;;;;;;;;;5096474;28;19947;-58
2022/02/18 04:41:51;;;;;;;;;;;;;;;;;;5096390;28;20373;-59
2022/02/18 04:44:17;;;;;;;;;;;;;;;;;;5096136;28;19908;-57
2022/02/18 04:46:44;;;;;;;;;;;;;;;;;;5095889;28;20391;-59
2022/02/18 04:49:10;;;;;;;;;;;;;;;;;;5095742;28;19912;-62
2022/02/18 04:51:37;;;;;;;;;;;;;;;;;;5096342;28;19916;-56
2022/02/18 04:54:04;;;;;;;;;;;;;;;;;;5095912;28;19908;-56
2022/02/18 04:56:30;;;;;;;;;;;;;;;;;;5095745;28;20010;-57
2022/02/18 04:58:56;;;;;;;;;;;;;;;;;;5095999;28;19908;-58
2022/02/18 05:01:23;;;;;;;;;;;;;;;;;;5096180;28;20427;-52
2022/02/18 05:03:50;;;;;;;;;;;;;;;;;;5096089;28;19999;-59
2022/02/18 05:06:17;;;;;;;;;;;;;;;;;;5096295;28;19984;-56
2022/02/18 05:08:43;;;;;;;;;;;;;;;;;;5094729;28;19940;-55
2022/02/18 05:11:10;;;;;;;;;;;;;;;;;;5096611;28;19912;-57
2022/02/18 05:13:36;;;;;;;;;;;;;;;;;;5096293;28;19916;-60
2022/02/18 05:16:03;;;;;;;;;;;;;;;;;;5096029;28;19917;-52
2022/02/18 05:18:29;;;;;;;;;;;;;;;;;;5094425;28;19927;-57
2022/02/18 05:20:56;;;;;;;;;;;;;;;;;;5096302;28;19908;-53
2022/02/18 05:23:22;;;;;;;;;;;;;;;;;;5095660;28;20379;-54
2022/02/18 05:25:49;;;;;;;;;;;;;;;;;;5095497;28;19990;-53
2022/02/18 05:28:15;;;;;;;;;;;;;;;;;;5095226;28;19985;-57
2022/02/18 05:30:42;;;;;;;;;;;;;;;;;;5094923;28;19930;-60
2022/02/18 05:33:09;;;;;;;;;;;;;;;;;;5095160;28;19919;-60
2022/02/18 05:35:35;;;;;;;;;;;;;;;;;;5095286;28;20016;-55
2022/02/18 05:38:02;;;;;;;;;;;;;;;;;;5095571;28;19918;-57
2022/02/18 05:40:29;;;;;;;;;;;;;;;;;;5095292;28;19912;-53
2022/02/18 05:42:55;;;;;;;;;;;;;;;;;;5095471;28;19915;-58
2022/02/18 05:45:22;;;;;;;;;;;;;;;;;;5094835;28;19931;-56
2022/02/18 05:47:48;;;;;;;;;;;;;;;;;;5093807;28;20375;-57
2022/02/18 05:50:15;;;;;;;;;;;;;;;;;;5094986;28;20046;-58
2022/02/18 05:52:41;;;;;;;;;;;;;;;;;;5094973;28;19908;-59
2022/02/18 05:55:08;;;;;;;;;;;;;;;;;;5095085;28;19915;-59
2022/02/18 05:57:34;;;;;;;;;;;;;;;;;;5094845;28;19920;-58
2022/02/18 06:00:01;;;;;;;;;;;;;;;;;;5094640;28;20384;-56
2022/02/18 06:02:27;;;;;;;;;;;;;;;;;;5094683;28;19980;-57
2022/02/18 06:04:54;;;;;;;;;;;;;;;;;;5094560;28;19953;-59
2022/02/18 06:07:21;;;;;;;;;;;;;;;;;;5094436;28;19912;-58
2022/02/18 06:09:48;;;;;;;;;;;;;;;;;;5094531;28;19908;-56
2022/02/18 06:12:14;;;;;;;;;;;;;;;;;;5094570;28;19915;-56
2022/02/18 06:14:41;;;;;;;;;;;;;;;;;;5094128;28;20314;-51
2022/02/18 06:17:09;;;;;;;;;;;;;;;;;;5094224;28;20454;-48
2022/02/18 06:19:35;;;;;;;;;;;;;;;;;;5094195;28;19968;-55
2022/02/18 06:22:02;;;;;;;;;;;;;;;;;;5093894;28;19919;-53
2022/02/18 06:24:28;;;;;;;;;;;;;;;;;;5094083;28;19908;-55
2022/02/18 06:26:55;;;;;;;;;;;;;;;;;;5094165;28;20316;-59
2022/02/18 06:29:21;;;;;;;;;;;;;;;;;;5094223;28;19962;-57
2022/02/18 06:31:48;;;;;;;;;;;;;;;;;;5092223;28;19908;-57
2022/02/18 06:34:14;;;;;;;;;;;;;;;;;;5093901;28;19908;-59
2022/02/18 06:36:41;;;;;;;;;;;;;;;;;;5093794;28;19977;-55
2022/02/18 06:39:09;;;;;;;;;;;;;;;;;;5093705;28;19908;-58
2022/02/18 06:41:35;;;;;;;;;;;;;;;;;;5094014;28;19904;-58
2022/02/18 06:44:02;;;;;;;;;;;;;;;;;;5093625;28;20411;-57
2022/02/18 06:46:28;;;;;;;;;;;;;;;;;;5093436;28;19905;-50
2022/02/18 06:48:55;;;;;;;;;;;;;;;;;;5093231;28;19908;-57
2022/02/18 06:51:23;;;;;;;;;;;;;;;;;;5093489;28;19957;-47
2022/02/18 06:53:50;;;;;;;;;;;;;;;;;;5093827;28;19915;-60
2022/02/18 06:56:16;;;;;;;;;;;;;;;;;;5093346;28;19956;-55
2022/02/18 06:58:43;;;;;;;;;;;;;;;;;;5093171;28;20382;-51
2022/02/18 07:01:09;;;;;;;;;;;;;;;;;;5093647;28;19912;-60
2022/02/18 07:03:36;;;;;;;;;;;;;;;;;;5093349;28;19908;-56
2022/02/18 07:06:03;;;;;;;;;;;;;;;;;;5093470;28;20072;-53
2022/02/18 07:08:30;;;;;;;;;;;;;;;;;;5093198;28;19994;-54
2022/02/18 07:10:57;;;;;;;;;;;;;;;;;;5093533;28;20394;-49
2022/02/18 07:13:23;;;;;;;;;;;;;;;;;;5093431;28;19930;-60
2022/02/18 07:15:50;;;;;;;;;;;;;;;;;;5093158;28;19963;-53
2022/02/18 07:18:16;;;;;;;;;;;;;;;;;;5093187;28;19973;-52
2022/02/18 07:20:43;;;;;;;;;;;;;;;;;;5093155;28;19990;-50
2022/02/18 07:23:09;;;;;;;;;;;;;;;;;;5093294;28;20308;-58
2022/02/18 07:25:36;;;;;;;;;;;;;;;;;;5093282;28;19915;-56
2022/02/18 07:28:02;;;;;;;;;;;;;;;;;;5092999;28;20023;-56
2022/02/18 07:30:29;;;;;;;;;;;;;;;;;;5091845;28;19957;-58
2022/02/18 07:32:55;;;;;;;;;;;;;;;;;;5092474;28;20061;-53
2022/02/18 07:35:22;;;;;;;;;;;;;;;;;;5092938;28;19908;-49
2022/02/18 07:37:49;;;;;;;;;;;;;;;;;;5093236;28;20270;-54
2022/02/18 07:40:16;;;;;;;;;;;;;;;;;;5093315;28;19915;-58
2022/02/18 07:42:43;;;;;;;;;;;;;;;;;;5093081;28;19915;-58
2022/02/18 07:45:10;;;;;;;;;;;;;;;;;;5093092;28;19946;-53
2022/02/18 07:47:36;;;;;;;;;;;;;;;;;;5092850;28;19916;-59
2022/02/18 07:50:03;;;;;;;;;;;;;;;;;;5094748;28;20278;-61
2022/02/18 07:52:29;;;;;;;;;;;;;;;;;;5097148;28;19909;-61
2022/02/18 07:54:56;;;;;;;;;;;;;;;;;;5097443;28;19961;-57
2022/02/18 07:57:23;;;;;;;;;;;;;;;;;;5095799;28;19923;-58
2022/02/18 07:59:50;;;;;;;;;;;;;;;;;;5096987;28;19999;-54
2022/02/18 08:02:16;;;;;;;;;;;;;;;;;;5096885;28;19908;-61
2022/02/18 08:04:42;;;;;;;;;;;;;;;;;;5097057;28;19929;-57
2022/02/18 08:07:09;;;;;;;;;;;;;;;;;;5097327;28;20311;-60
2022/02/18 08:09:38;;;;;;;;;;;;;;;;;;5097069;28;20387;-60
2022/02/18 08:12:05;;;;;;;;;;;;;;;;;;5097051;28;19998;-61
2022/02/18 08:14:32;;;;;;;;;;;;;;;;;;5096846;28;20262;-53
2022/02/18 08:16:58;;;;;;;;;;;;;;;;;;5096479;28;19920;-58
2022/02/18 08:19:25;;;;;;;;;;;;;;;;;;5096944;28;19916;-60
2022/02/18 08:21:51;;;;;;;;;;;;;;;;;;5097325;28;19912;-56
2022/02/18 08:24:18;;;;;;;;;;;;;;;;;;5095697;28;19943;-60
2022/02/18 08:26:45;;;;;;;;;;;;;;;;;;5097012;28;20336;-61
2022/02/18 08:29:12;;;;;;;;;;;;;;;;;;5096692;28;19908;-56
2022/02/18 08:31:41;;;;;;;;;;;;;;;;;;5096700;28;19918;-57
2022/02/18 08:34:08;;;;;;;;;;;;;;;;;;5096845;28;19946;-62
2022/02/18 08:36:35;;;;;;;;;;;;;;;;;;5096748;28;19972;-59
2022/02/18 08:39:01;;;;;;;;;;;;;;;;;;5097121;28;19969;-56
2022/02/18 08:41:28;;;;;;;;;;;;;;;;;;5097125;28;19908;-54
2022/02/18 08:43:57;;;;;;;;;;;;;;;;;;5095453;28;20292;-57
2022/02/18 08:46:23;;;;;;;;;;;;;;;;;;5096604;28;19962;-57
2022/02/18 08:48:50;;;;;;;;;;;;;;;;;;5096581;28;19924;-53
2022/02/18 08:51:16;;;;;;;;;;;;;;;;;;5095294;28;19974;-55
2022/02/18 08:53:43;;;;;;;;;;;;;;;;;;5096564;28;20266;-50
2022/02/18 08:56:09;;;;;;;;;;;;;;;;;;5096134;28;19920;-55
2022/02/18 08:58:36;;;;;;;;;;;;;;;;;;5096312;28;19912;-53
2022/02/18 09:01:02;;;;;;;;;;;;;;;;;;5096285;28;19961;-58
2022/02/18 09:03:29;;;;;;;;;;;;;;;;;;5096544;28;20393;-59
2022/02/18 09:05:56;;;;;;;;;;;;;;;;;;5096029;28;19915;-54
2022/02/18 09:08:24;;;;;;;;;;;;;;;;;;5095907;28;20019;-54
2022/02/18 09:10:52;;;;;;;;;;;;;;;;;;5094511;28;19920;-59
2022/02/18 09:13:20;;;;;;;;;;;;;;;;;;5096053;28;19930;-59
2022/02/18 09:15:46;;;;;;;;;;;;;;;;;;5095782;28;20337;-52
2022/02/18 09:18:13;;;;;;;;;;;;;;;;;;5094283;28;19990;-53
2022/02/18 09:20:39;;;;;;;;;;;;;;;;;;5095458;28;19999;-51
2022/02/18 09:23:06;;;;;;;;;;;;;;;;;;5095500;28;20328;-49
2022/02/18 09:25:32;;;;;;;;;;;;;;;;;;5095561;28;19915;-59
2022/02/18 09:28:00;;;;;;;;;;;;;;;;;;5095520;28;19915;-51
2022/02/18 09:30:26;;;;;;;;;;;;;;;;;;5095426;28;19987;-61
2022/02/18 09:32:53;;;;;;;;;;;;;;;;;;5095418;28;19995;-53
2022/02/18 09:35:20;;;;;;;;;;;;;;;;;;5095862;28;19912;-58
2022/02/18 09:37:46;;;;;;;;;;;;;;;;;;5095795;28;20267;-57
2022/02/18 09:40:13;;;;;;;;;;;;;;;;;;5095451;28;20243;-59
2022/02/18 09:42:39;;;;;;;;;;;;;;;;;;5095548;28;19913;-59
2022/02/18 09:45:06;;;;;;;;;;;;;;;;;;5095685;28;20347;-57
2022/02/18 09:47:32;;;;;;;;;;;;;;;;;;5095456;28;19961;-56
2022/02/18 09:49:59;;;;;;;;;;;;;;;;;;5094599;28;19911;-56
2022/02/18 09:52:26;;;;;;;;;;;;;;;;;;5095338;28;19915;-59
2022/02/18 09:54:52;;;;;;;;;;;;;;;;;;5095514;28;19908;-51
2022/02/18 09:57:20;;;;;;;;;;;;;;;;;;5094216;28;19924;-60
2022/02/18 09:59:46;;;;;;;;;;;;;;;;;;5095313;28;19915;-64
2022/02/18 10:02:16;;;;;;;;;;;;;;;;;;5094779;28;19908;-57
2022/02/18 10:04:43;;;;;;;;;;;;;;;;;;5094517;28;20231;-61
2022/02/18 10:07:09;;;;;;;;;;;;;;;;;;5095133;28;19912;-57
2022/02/18 10:09:36;;;;;;;;;;;;;;;;;;5095142;28;20385;-58
2022/02/18 10:12:05;;;;;;;;;;;;;;;;;;5094165;28;19915;-59
2022/02/18 10:14:31;;;;;;;;;;;;;;;;;;5095120;28;19915;-60
2022/02/18 10:16:58;;;;;;;;;;;;;;;;;;5094566;28;19920;-59
2022/02/18 10:19:26;;;;;;;;;;;;;;;;;;5094931;28;19991;-58
2022/02/18 10:21:52;;;;;;;;;;;;;;;;;;5094981;28;19908;-58
2022/02/18 10:24:20;;;;;;;;;;;;;;;;;;5094600;28;19908;-51
2022/02/18 10:26:47;;;;;;;;;;;;;;;;;;5089866;28;19916;-56
2022/02/18 10:29:13;;;;;;;;;;;;;;;;;;5094523;28;20293;-59
2022/02/18 10:31:40;;;;;;;;;;;;;;;;;;5092889;28;20354;-57
2022/02/18 10:34:06;;;;;;;;;;;;;;;;;;5093929;28;20356;-62
2022/02/18 10:36:33;;;;;;;;;;;;;;;;;;5094261;28;19968;-59
2022/02/18 10:38:59;;;;;;;;;;;;;;;;;;5094173;28;19908;-55
2022/02/18 10:41:29;;;;;;;;;;;;;;;;;;5094428;28;19908;-59
2022/02/18 10:43:59;;;;;;;;;;;;;;;;;;5093907;28;19915;-60
2022/02/18 10:46:26;;;;;;;;;;;;;;;;;;5093928;28;20041;-58
2022/02/18 10:48:56;;;;;;;;;;;;;;;;;;5094290;28;19915;-60
2022/02/18 10:51:30;;;;;;;;;;;;;;;;;;5094104;28;19908;-54
2022/02/18 10:53:57;;;;;;;;;;;;;;;;;;5092692;28;19908;-59
2022/02/18 10:56:23;;;;;;;;;;;;;;;;;;5093905;28;20015;-57
2022/02/18 10:58:50;;;;;;;;;;;;;;;;;;5093810;28;19912;-58
2022/02/18 11:01:16;;;;;;;;;;;;;;;;;;5093856;28;19966;-57
2022/02/18 11:03:43;;;;;;;;;;;;;;;;;;5093907;28;19908;-62
2022/02/18 11:06:10;;;;;;;;;;;;;;;;;;5094011;28;20109;-56
2022/02/18 11:08:37;;;;;;;;;;;;;;;;;;5094223;28;19908;-51
2022/02/18 11:11:03;;;;;;;;;;;;;;;;;;5093492;28;20266;-47
2022/02/18 11:13:30;;;;;;;;;;;;;;;;;;5093590;28;20259;-56
2022/02/18 11:15:57;;;;;;;;;;;;;;;;;;5093753;28;19916;-59
2022/02/18 11:18:25;;;;;;;;;;;;;;;;;;5091268;28;20003;-56
2022/02/18 11:20:52;;;;;;;;;;;;;;;;;;5093033;28;19909;-53
2022/02/18 11:23:19;;;;;;;;;;;;;;;;;;5093521;28;19908;-55
2022/02/18 11:25:45;;;;;;;;;;;;;;;;;;5093740;28;19915;-57
2022/02/18 11:28:12;;;;;;;;;;;;;;;;;;5093617;28;19952;-60
2022/02/18 11:30:39;;;;;;;;;;;;;;;;;;5093124;28;19910;-53
2022/02/18 11:33:06;;;;;;;;;;;;;;;;;;5093330;28;19976;-56
2022/02/18 11:35:33;;;;;;;;;;;;;;;;;;5094479;28;19911;-58
2022/02/18 11:37:59;;;;;;;;;;;;;;;;;;5094281;28;19912;-58
2022/02/18 11:40:29;;;;;;;;;;;;;;;;;;5093966;28;20270;-47
2022/02/18 11:42:56;;;;;;;;;;;;;;;;;;5092367;28;19915;-57
2022/02/18 11:45:23;;;;;;;;;;;;;;;;;;5093246;28;19908;-58
2022/02/18 11:47:49;;;;;;;;;;;;;;;;;;5094039;28;19909;-57
2022/02/18 11:50:16;;;;;;;;;;;;;;;;;;5093621;28;19955;-61
2022/02/18 11:52:43;;;;;;;;;;;;;;;;;;5093480;28;19908;-55
2022/02/18 11:55:09;;;;;;;;;;;;;;;;;;5093575;28;20001;-57
2022/02/18 11:57:36;;;;;;;;;;;;;;;;;;5093258;28;20274;-59
2022/02/18 12:00:03;;;;;;;;;;;;;;;;;;5093365;28;19912;-61
2022/02/18 12:02:29;;;;;;;;;;;;;;;;;;5093352;28;19911;-59
2022/02/18 12:04:56;;;;;;;;;;;;;;;;;;5093388;28;20264;-58
2022/02/18 12:07:22;;;;;;;;;;;;;;;;;;5092208;28;19908;-61
2022/02/18 12:09:49;;;;;;;;;;;;;;;;;;5093535;28;20278;-60
2022/02/18 12:12:15;;;;;;;;;;;;;;;;;;5093171;28;19904;-55
2022/02/18 12:14:42;;;;;;;;;;;;;;;;;;5093451;28;19940;-59
2022/02/18 12:17:08;;;;;;;;;;;;;;;;;;5093197;28;19926;-54
2022/02/18 12:19:35;;;;;;;;;;;;;;;;;;5092445;28;19908;-58
2022/02/18 12:22:05;;;;;;;;;;;;;;;;;;5093368;28;19939;-56
2022/02/18 12:24:31;;;;;;;;;;;;;;;;;;5093035;28;19953;-58
2022/02/18 12:27:02;;;;;;;;;;;;;;;;;;5092605;28;20278;-53
2022/02/18 12:29:29;;;;;;;;;;;;;;;;;;5093279;28;19908;-58
2022/02/18 12:32:01;;;;;;;;;;;;;;;;;;5092844;28;19957;-57
2022/02/18 12:34:27;;;;;;;;;;;;;;;;;;5092449;28;19931;-57
2022/02/18 12:36:54;;;;;;;;;;;;;;;;;;5095757;28;20321;-61
2022/02/18 12:39:20;;;;;;;;;;;;;;;;;;5096637;28;20271;-58
2022/02/18 12:41:47;;;;;;;;;;;;;;;;;;5096728;28;19908;-58
2022/02/18 12:44:13;;;;;;;;;;;;;;;;;;5096760;28;19913;-55
2022/02/18 12:46:40;;;;;;;;;;;;;;;;;;5096215;28;20029;-57
2022/02/18 12:49:06;;;;;;;;;;;;;;;;;;5096694;28;19994;-55
2022/02/18 12:51:33;;;;;;;;;;;;;;;;;;5096772;28;19939;-58
2022/02/18 12:54:00;;;;;;;;;;;;;;;;;;5095241;28;20282;-59
2022/02/18 12:56:27;;;;;;;;;;;;;;;;;;5096295;28;19924;-46
2022/02/18 12:58:53;;;;;;;;;;;;;;;;;;5096234;28;19909;-59
2022/02/18 13:01:20;;;;;;;;;;;;;;;;;;5096538;28;19911;-56
2022/02/18 13:03:47;;;;;;;;;;;;;;;;;;5096634;28;19908;-52
2022/02/18 13:06:13;;;;;;;;;;;;;;;;;;5090641;28;20323;-52
2022/02/18 13:08:40;;;;;;;;;;;;;;;;;;5093044;28;19920;-58
2022/02/18 13:11:06;;;;;;;;;;;;;;;;;;5090006;28;19950;-48
2022/02/18 13:13:34;;;;;;;;;;;;;;;;;;5091580;28;19973;-51
2022/02/18 13:16:00;;;;;;;;;;;;;;;;;;5090108;28;20389;-54
2022/02/18 13:18:26;;;;;;;;;;;;;;;;;;5084195;28;19920;-52
2022/02/18 13:20:53;;;;;;;;;;;;;;;;;;5076484;28;19947;-49
2022/02/18 13:23:20;;;;;;;;;;;;;;;;;;5084555;28;19962;-49
2022/02/18 13:25:46;;;;;;;;;;;;;;;;;;5088917;28;20274;-53
2022/02/18 13:28:12;;;;;;;;;;;;;;;;;;5072458;28;19909;-48
2022/02/18 13:30:39;;;;;;;;;;;;;;;;;;5071256;28;19972;-47
2022/02/18 13:33:06;;;;;;;;;;;;;;;;;;5087701;28;19916;-51
2022/02/18 13:35:32;;;;;;;;;;;;;;;;;;5080862;28;19916;-47
2022/02/18 13:37:59;;;;;;;;;;;;;;;;;;5084824;28;19969;-52
2022/02/18 13:40:25;;;;;;;;;;;;;;;;;;5085717;28;20460;-52
2022/02/18 13:42:52;;;;;;;;;;;;;;;;;;5086562;28;19915;-49
2022/02/18 13:45:18;;;;;;;;;;;;;;;;;;5089267;28;19915;-57
2022/02/18 13:47:45;;;;;;;;;;;;;;;;;;5087389;28;20313;-48
2022/02/18 13:50:11;;;;;;;;;;;;;;;;;;5083549;28;19908;-51
2022/02/18 13:52:38;;;;;;;;;;;;;;;;;;5086564;28;19908;-49
2022/02/18 13:55:05;;;;;;;;;;;;;;;;;;5090165;28;20298;-52
2022/02/18 13:57:31;;;;;;;;;;;;;;;;;;5087948;28;19920;-52
2022/02/18 13:59:58;;;;;;;;;;;;;;;;;;5066581;28;20319;-47
2022/02/18 14:02:24;;;;;;;;;;;;;;;;;;5087949;28;19994;-49
2022/02/18 14:04:51;;;;;;;;;;;;;;;;;;5085932;28;19946;-52
2022/02/18 14:07:20;;;;;;;;;;;;;;;;;;5088654;28;19916;-48
2022/02/18 14:09:48;;;;;;;;;;;;;;;;;;5082837;28;19981;-49
2022/02/18 14:12:18;;;;;;;;;;;;;;;;;;5089030;28;19908;-50
2022/02/18 14:14:44;;;;;;;;;;;;;;;;;;5087550;28;20390;-44
2022/02/18 14:17:10;;;;;;;;;;;;;;;;;;5084625;28;20290;-50
2022/02/18 14:19:37;;;;;;;;;;;;;;;;;;5081735;28;19928;-53
2022/02/18 14:22:05;;;;;;;;;;;;;;;;;;5086793;28;19965;-47
2022/02/18 14:24:32;;;;;;;;;;;;;;;;;;5085790;28;20443;-54
2022/02/18 14:26:58;;;;;;;;;;;;;;;;;;5087094;28;20007;-52
2022/02/18 14:29:25;;;;;;;;;;;;;;;;;;5089741;28;19915;-57
2022/02/18 14:31:51;;;;;;;;;;;;;;;;;;5086963;28;19960;-49
2022/02/18 14:34:18;;;;;;;;;;;;;;;;;;5081247;28;19915;-48
2022/02/18 14:36:44;;;;;;;;;;;;;;;;;;5086495;28;19916;-50
2022/02/18 14:39:11;;;;;;;;;;;;;;;;;;5089380;28;20375;-52
2022/02/18 14:41:37;;;;;;;;;;;;;;;;;;5087765;28;19908;-49
2022/02/18 14:44:04;;;;;;;;;;;;;;;;;;5082178;28;19917;-53
2022/02/18 14:46:30;;;;;;;;;;;;;;;;;;5087787;28;19912;-52
2022/02/18 14:48:57;;;;;;;;;;;;;;;;;;5089383;28;19908;-52
2022/02/18 14:51:24;;;;;;;;;;;;;;;;;;5083986;28;19917;-46
2022/02/18 14:53:50;;;;;;;;;;;;;;;;;;5082036;28;19958;-52
2022/02/18 14:56:17;;;;;;;;;;;;;;;;;;5086835;28;20020;-53
2022/02/18 14:58:43;;;;;;;;;;;;;;;;;;5083467;28;19912;-50
2022/02/18 15:01:09;;;;;;;;;;;;;;;;;;5087089;28;19912;-49
2022/02/18 15:03:36;;;;;;;;;;;;;;;;;;5081818;28;19951;-47
2022/02/18 15:06:02;;;;;;;;;;;;;;;;;;5066946;28;20251;-53
2022/02/18 15:08:29;;;;;;;;;;;;;;;;;;5083670;28;19908;-53
2022/02/18 15:10:55;;;;;;;;;;;;;;;;;;5085940;28;19955;-46
2022/02/18 15:13:22;;;;;;;;;;;;;;;;;;5076733;28;19912;-47
2022/02/18 15:15:48;;;;;;;;;;;;;;;;;;5086701;28;20360;-50
2022/02/18 15:18:15;;;;;;;;;;;;;;;;;;5084048;28;20007;-52
2022/02/18 15:20:41;;;;;;;;;;;;;;;;;;5090271;28;19909;-52
2022/02/18 15:23:08;;;;;;;;;;;;;;;;;;5086259;28;20350;-53
2022/02/18 15:25:36;;;;;;;;;;;;;;;;;;5090381;28;19908;-50
2022/02/18 15:28:11;;;;;;;;;;;;;;;;;;5091540;28;20031;-51
2022/02/18 15:36:06;;;;;;;;;;;;;;;;;;5087532;28;19923;-49
2022/02/18 15:38:33;;;;;;;;;;;;;;;;;;5089467;28;19936;-45
2022/02/18 15:43:44;;;;;;;;;;;;;;;;;;5085333;28;19915;-49
2022/02/18 15:46:10;;;;;;;;;;;;;;;;;;5089267;28;20303;-45
2022/02/18 15:48:37;;;;;;;;;;;;;;;;;;5090327;28;20362;-54
2022/02/18 15:51:03;;;;;;;;;;;;;;;;;;5086797;28;20424;-47
2022/02/18 15:53:30;;;;;;;;;;;;;;;;;;5086348;28;20007;-50
2022/02/18 15:55:56;;;;;;;;;;;;;;;;;;5088889;28;20274;-45
2022/02/18 15:58:29;;;;;;;;;;;;;;;;;;5090121;28;19908;-52
2022/02/18 16:00:58;;;;;;;;;;;;;;;;;;5090110;28;19915;-54
2022/02/18 16:03:26;;;;;;;;;;;;;;;;;;5086790;28;19908;-46
2022/02/18 16:05:52;;;;;;;;;;;;;;;;;;5089807;28;19908;-53
2022/02/18 16:08:19;;;;;;;;;;;;;;;;;;5090149;28;19916;-51
2022/02/18 16:10:46;;;;;;;;;;;;;;;;;;5090622;28;19908;-53
2022/02/18 16:13:12;;;;;;;;;;;;;;;;;;5088475;28;19915;-50
2022/02/18 16:15:41;;;;;;;;;;;;;;;;;;5093741;28;20375;-48
2022/02/18 16:18:07;;;;;;;;;;;;;;;;;;5092406;28;20013;-46
2022/02/18 16:20:34;;;;;;;;;;;;;;;;;;5093098;28;19919;-47
2022/02/18 16:23:00;;;;;;;;;;;;;;;;;;5090444;28;19919;-50
2022/02/18 16:25:27;;;;;;;;;;;;;;;;;;5093820;28;20355;-48
2022/02/18 16:27:54;;;;;;;;;;;;;;;;;;5095072;28;20308;-51
2022/02/18 16:30:21;;;;;;;;;;;;;;;;;;5093619;28;19916;-48
2022/02/18 16:32:48;;;;;;;;;;;;;;;;;;5090198;28;19997;-48
2022/02/18 16:35:14;;;;;;;;;;;;;;;;;;5093539;28;20354;-50
2022/02/18 16:37:41;;;;;;;;;;;;;;;;;;5092774;28;20290;-54
2022/02/18 16:40:07;;;;;;;;;;;;;;;;;;5093863;28;20270;-48
2022/02/18 16:42:36;;;;;;;;;;;;;;;;;;5089733;28;20997;-48
2022/02/18 16:45:03;;;;;;;;;;;;;;;;;;5090742;28;19909;-50
2022/02/18 16:47:29;;;;;;;;;;;;;;;;;;5093593;28;19908;-46
2022/02/18 16:49:56;;;;;;;;;;;;;;;;;;5093307;28;19958;-52